πŸ“Š DonnΓ©es MΓ©tΓ©o - Bordeaux

Total mesures

14,407

TempΓ©rature moyenne

18.9Β°C

Temp. Min/Max

2.9Β° / 42.4Β°

HumiditΓ© moyenne

64.8%

Pression moyenne

1014.7 hPa
enregistrements
ID Date/Heure Temp (Β°C) HumiditΓ© (%) Pression (hPa) Tendance LuminositΓ© (lux) Situation
11607 18/07/2026 16:15 32.4 30.0 1,012.1 β†’ Stable 66,756 chaleur-seche
11606 18/07/2026 15:45 32.5 28.0 1,012.5 β†’ Stable 75,648 chaleur-seche
11605 18/07/2026 15:15 32.4 30.0 1,012.5 β†’ Stable 83,892 chaleur-seche
11604 18/07/2026 14:45 32.2 29.0 1,013.0 β†’ Stable 90,828 chaleur-seche
11603 18/07/2026 14:15 31.9 29.0 1,013.0 β†’ Stable 96,384 chaleur-seche
11602 18/07/2026 13:45 31.7 30.0 1,013.3 β†’ Stable 100,836 chaleur-seche
11601 18/07/2026 13:15 31.4 32.0 1,013.5 β†’ Stable 103,980 chaleur-seche
11600 18/07/2026 12:45 31.1 34.0 1,014.1 β†’ Stable 105,924 chaleur-seche
11599 18/07/2026 12:15 30.7 36.0 1,014.1 β†’ Stable 106,476 chaleur-seche
11598 18/07/2026 11:45 30.1 38.0 1,014.6 β†’ Stable 105,828 chaleur-seche
11597 18/07/2026 11:15 29.1 42.0 1,014.6 β†’ Stable 101,940 confortablement-chaud (approx.)
11596 18/07/2026 10:45 28.4 46.0 1,015.2 β†’ Stable 98,424 confortablement-chaud
11595 18/07/2026 10:15 27.7 49.0 1,015.2 β†’ Stable 95,460 confortablement-chaud
11594 18/07/2026 09:45 26.8 53.0 1,015.5 β†’ Stable 90,096 confortablement-chaud
11593 18/07/2026 09:15 25.7 59.0 1,015.5 β†’ Stable 80,004 confortablement-chaud
11592 18/07/2026 08:45 24.8 64.0 1,015.6 β†’ Stable 71,940 confortablement-chaud
11591 18/07/2026 08:15 23.7 69.0 1,015.6 β†’ Stable 57,588 conditions-neutrales-ou-non-definies
11590 18/07/2026 07:45 22.8 74.0 1,015.5 β†’ Stable 48,420 pluvieux-gris (approx.)
11589 18/07/2026 07:15 21.2 84.0 1,015.5 β†’ Stable 16,572 pluvieux-gris (approx.)
11588 18/07/2026 06:45 20.8 85.0 1,015.3 β†’ Stable 12,408 pluvieux-gris (approx.)
11587 18/07/2026 06:15 20.1 86.0 1,015.3 β†’ Stable 11,388 pluvieux-gris (approx.)
11586 18/07/2026 05:45 19.6 89.0 1,015.1 β†’ Stable 7,968 pluvieux-gris (approx.)
11585 18/07/2026 05:15 19.4 90.0 1,015.1 β†’ Stable 2,964 pluvieux-gris (approx.)
11584 18/07/2026 04:45 19.1 91.0 1,015.1 β†’ Stable 96 pluvieux-gris (approx.)
11583 18/07/2026 04:15 19.6 91.0 1,015.1 β†’ Stable 0 pluvieux-gris (approx.)
11582 18/07/2026 03:45 19.5 91.0 1,015.3 β†’ Stable 0 pluvieux-gris (approx.)
11581 18/07/2026 03:15 19.6 89.0 1,015.3 β†’ Stable 0 pluvieux-gris (approx.)
11580 18/07/2026 03:00 19.8 89.0 1,015.3 β†’ Stable 0 pluvieux-gris (approx.)
11579 18/07/2026 02:45 19.9 88.0 1,015.4 β†’ Stable 0 pluvieux-gris (approx.)
11578 18/07/2026 02:15 20.1 88.0 1,015.4 β†’ Stable 0 pluvieux-gris (approx.)
11577 18/07/2026 01:45 20.2 88.0 1,015.7 β†’ Stable 0 pluvieux-gris (approx.)
11576 18/07/2026 01:15 20.5 87.0 1,015.5 β†’ Stable 0 pluvieux-gris (approx.)
11575 18/07/2026 00:45 20.5 86.0 1,015.9 β†’ Stable 0 pluvieux-gris (approx.)
11574 18/07/2026 00:15 20.8 85.0 1,015.9 β†’ Stable 0 pluvieux-gris (approx.)
11573 17/07/2026 23:45 21.1 83.0 1,015.9 β†’ Stable 0 pluvieux-gris (approx.)
11572 17/07/2026 23:15 21.5 82.0 1,015.9 β†’ Stable 0 pluvieux-gris (approx.)
11571 17/07/2026 22:45 21.8 80.0 1,015.8 β†’ Stable 0 pluvieux-gris (approx.)
11570 17/07/2026 22:15 22.1 77.0 1,015.8 β†’ Stable 0 pluvieux-gris (approx.)
11569 17/07/2026 21:45 22.5 75.0 1,015.6 β†’ Stable 0 pluvieux-gris (approx.)
11568 17/07/2026 21:15 23.0 72.0 1,015.6 β†’ Stable 0 pluvieux-gris (approx.)
11567 17/07/2026 20:45 23.5 69.0 1,014.7 β†’ Stable 0 conditions-neutrales-ou-non-definies
11566 17/07/2026 20:15 24.3 63.0 1,014.7 β†’ Stable 0 confortablement-chaud (approx.)
11565 17/07/2026 19:45 25.0 59.0 1,014.3 β†’ Stable 372 confortablement-chaud (approx.)
11564 17/07/2026 19:15 25.9 54.0 1,014.3 β†’ Stable 6,576 confortablement-chaud (approx.)
11563 17/07/2026 18:45 26.6 53.0 1,014.2 β†’ Stable 13,980 confortablement-chaud (approx.)
11562 17/07/2026 18:15 27.3 50.0 1,014.2 β†’ Stable 24,912 confortablement-chaud (approx.)
11561 17/07/2026 17:45 27.9 47.0 1,013.9 β†’ Stable 34,260 confortablement-chaud (approx.)
11560 17/07/2026 17:15 28.4 45.0 1,013.9 β†’ Stable 45,648 confortablement-chaud (approx.)
11559 17/07/2026 16:45 28.9 44.0 1,013.7 β†’ Stable 55,188 confortablement-chaud (approx.)
11558 17/07/2026 16:15 29.5 44.0 1,013.6 β†’ Stable 57,960 conditions-neutrales-ou-non-definies
11557 17/07/2026 15:45 29.9 43.0 1,013.5 β†’ Stable 63,708 conditions-neutrales-ou-non-definies
11556 17/07/2026 15:15 30.5 40.0 1,013.5 β†’ Stable 73,704 confortablement-chaud (approx.)
11555 17/07/2026 14:45 30.8 39.0 1,013.7 β†’ Stable 82,032 chaleur-seche
11554 17/07/2026 14:15 31.0 37.0 1,013.7 β†’ Stable 85,644 chaleur-seche
11553 17/07/2026 13:45 30.9 38.0 1,014.0 β†’ Stable 91,296 chaleur-seche
11552 17/07/2026 13:15 30.8 38.0 1,014.2 β†’ Stable 81,948 chaleur-seche
11551 17/07/2026 12:45 30.7 39.0 1,014.5 β†’ Stable 97,032 chaleur-seche
11550 17/07/2026 12:15 30.7 38.0 1,014.5 β†’ Stable 86,388 chaleur-seche
11549 17/07/2026 11:45 30.5 39.0 1,014.5 β†’ Stable 94,812 chaleur-seche
11548 17/07/2026 11:15 29.5 43.0 1,014.5 β†’ Stable 78,144 confortablement-chaud (approx.)
11547 17/07/2026 10:45 29.3 45.0 1,014.8 β†’ Stable 83,976 confortablement-chaud (approx.)
11546 17/07/2026 10:15 29.1 47.0 1,014.8 β†’ Stable 86,664 confortablement-chaud (approx.)
11545 17/07/2026 09:45 28.3 51.0 1,015.0 β†’ Stable 81,672 confortablement-chaud
11544 17/07/2026 09:15 27.8 56.0 1,015.0 β†’ Stable 69,912 confortablement-chaud (approx.)
11543 17/07/2026 08:45 26.5 61.0 1,015.1 β†’ Stable 62,220 confortablement-chaud (approx.)
11542 17/07/2026 08:15 25.4 65.0 1,015.1 β†’ Stable 38,244 confortablement-chaud (approx.)
11541 17/07/2026 07:45 24.5 73.0 1,015.2 β†’ Stable 31,392 pluvieux-gris (approx.)
11540 17/07/2026 07:15 23.1 81.0 1,015.2 β†’ Stable 14,904 pluvieux-gris (approx.)
11539 17/07/2026 06:45 22.5 85.0 1,014.9 β†’ Stable 10,188 pluvieux-gris (approx.)
11538 17/07/2026 06:15 22.2 84.0 1,014.9 β†’ Stable 8,976 pluvieux-gris (approx.)
11537 17/07/2026 06:00 22.1 85.0 1,014.9 β†’ Stable 7,596 pluvieux-gris (approx.)
11536 17/07/2026 05:45 22.0 85.0 1,014.3 β†’ Stable 6,024 pluvieux-gris (approx.)
11535 17/07/2026 05:15 21.7 88.0 1,014.3 β†’ Stable 3,708 pluvieux-gris (approx.)
11534 17/07/2026 04:45 21.5 90.0 1,014.3 β†’ Stable 180 pluvieux-gris (approx.)
11533 17/07/2026 04:15 22.0 86.0 1,014.3 β†’ Stable 0 pluvieux-gris (approx.)
11532 17/07/2026 03:45 21.9 88.0 1,014.7 β†’ Stable 0 pluvieux-gris (approx.)
11531 17/07/2026 03:15 22.2 85.0 1,014.7 β†’ Stable 0 pluvieux-gris (approx.)
11530 17/07/2026 03:00 22.3 87.0 1,014.7 β†’ Stable 0 pluvieux-gris (approx.)
11529 17/07/2026 02:45 22.4 88.0 1,014.7 β†’ Stable 0 pluvieux-gris (approx.)
11528 17/07/2026 02:15 22.8 84.0 1,014.7 β†’ Stable 0 pluvieux-gris (approx.)
11527 17/07/2026 01:45 22.6 87.0 1,014.0 β†’ Stable 0 pluvieux-gris (approx.)
11526 17/07/2026 01:15 22.9 88.0 1,014.0 β†’ Stable 0 pluvieux-gris (approx.)
11525 17/07/2026 00:45 23.2 86.0 1,013.3 β†’ Stable 0 pluvieux-gris (approx.)
11524 17/07/2026 00:15 23.7 84.0 1,013.3 β†’ Stable 0 pluvieux-gris (approx.)
11523 16/07/2026 23:45 23.9 84.0 1,014.9 β†’ Stable 0 pluvieux-gris (approx.)
11522 16/07/2026 23:15 23.5 81.0 1,014.9 β†’ Stable 0 pluvieux-gris (approx.)
11521 16/07/2026 22:45 23.5 82.0 1,015.7 β†’ Stable 0 pluvieux-gris (approx.)
11520 16/07/2026 22:15 23.8 79.0 1,015.7 β†’ Stable 0 pluvieux-gris (approx.)
11519 16/07/2026 21:45 24.1 78.0 1,013.7 β†’ Stable 0 pluvieux-gris (approx.)
11518 16/07/2026 21:15 24.5 73.0 1,013.7 β†’ Stable 0 pluvieux-gris (approx.)
11517 16/07/2026 20:45 24.8 72.0 1,014.2 β†’ Stable 0 pluvieux-gris (approx.)
11516 16/07/2026 20:15 25.3 70.0 1,014.2 β†’ Stable 0 pluvieux-gris (approx.)
11515 16/07/2026 19:45 25.9 64.0 1,012.7 β†’ Stable 468 confortablement-chaud (approx.)
11514 16/07/2026 19:15 26.3 67.0 1,012.7 β†’ Stable 6,852 confortablement-chaud (approx.)
11513 16/07/2026 18:45 27.5 63.0 1,011.4 β†’ Stable 14,352 confortablement-chaud (approx.)
11512 16/07/2026 18:15 29.0 54.0 1,011.4 β†’ Stable 24,720 confortablement-chaud (approx.)
11511 16/07/2026 17:45 29.8 51.0 1,011.3 β†’ Stable 34,080 conditions-neutrales-ou-non-definies
11510 16/07/2026 17:15 30.4 50.0 1,011.3 β†’ Stable 45,372 conditions-neutrales-ou-non-definies
11509 16/07/2026 16:45 30.8 49.0 1,011.5 β†’ Stable 54,816 conditions-neutrales-ou-non-definies
11508 16/07/2026 16:15 31.0 48.0 1,011.5 β†’ Stable 63,240 conditions-neutrales-ou-non-definies